EZY157P EGAC-EGPH
Flight info
| Callsign | EZY157P |
|---|---|
| Flight time | 0h 32m |
| Altitude | 17000 |
| Route | MAGEE DCT BLACA P600 TUNSO |
| Aircraft | A320/M-SDE3FGHIRWY/LB1 |
Departure
| Time | 2026-05-07 13:21 |
|---|---|
| Airport | George Best Belfast City Airport (EGAC) |
Arrival
| Time | 2026-05-07 13:54 |
|---|---|
| Airport | Edinburgh Airport (EGPH) |
| Time | Latitude | Longitude | Altitude | Speed | Heading |
|---|---|---|---|---|---|
| 2026-05-07 12:53 | 54.61461 | -5.87188 | 23 ft | 0 kts | 156° |
| 2026-05-07 13:08 | 54.61460 | -5.87187 | 23 ft | 0 kts | 156° |
| 2026-05-07 13:13 | 54.61476 | -5.87201 | 24 ft | 4 kts | 130° |
| 2026-05-07 13:13 | 54.61482 | -5.87215 | 25 ft | 0 kts | 114° |
| 2026-05-07 13:14 | 54.61485 | -5.87240 | 23 ft | 2 kts | 76° |
| 2026-05-07 13:14 | 54.61480 | -5.87263 | 25 ft | 0 kts | 42° |
| 2026-05-07 13:17 | 54.61492 | -5.87248 | 27 ft | 4 kts | 31° |
| 2026-05-07 13:17 | 54.61531 | -5.87218 | 23 ft | 9 kts | 25° |
| 2026-05-07 13:17 | 54.61584 | -5.87164 | 23 ft | 8 kts | 35° |
| 2026-05-07 13:17 | 54.61628 | -5.87110 | 23 ft | 9 kts | 35° |
| 2026-05-07 13:18 | 54.61689 | -5.87035 | 23 ft | 11 kts | 36° |
| 2026-05-07 13:18 | 54.61752 | -5.86993 | 23 ft | 9 kts | 346° |
| 2026-05-07 13:18 | 54.61792 | -5.87072 | 23 ft | 9 kts | 304° |
| 2026-05-07 13:18 | 54.61823 | -5.87150 | 24 ft | 7 kts | 309° |
| 2026-05-07 13:19 | 54.61880 | -5.87169 | 25 ft | 12 kts | 17° |
| 2026-05-07 13:19 | 54.61973 | -5.87056 | 23 ft | 21 kts | 37° |
| 2026-05-07 13:19 | 54.62098 | -5.86904 | 23 ft | 22 kts | 33° |
| 2026-05-07 13:19 | 54.62218 | -5.86765 | 24 ft | 19 kts | 34° |
| 2026-05-07 13:20 | 54.62340 | -5.86621 | 24 ft | 23 kts | 35° |
| 2026-05-07 13:20 | 54.62439 | -5.86548 | 24 ft | 12 kts | 2° |
| 2026-05-07 13:20 | 54.62480 | -5.86502 | 23 ft | 6 kts | 78° |
| 2026-05-07 13:20 | 54.62452 | -5.86481 | 23 ft | 5 kts | 203° |
| 2026-05-07 13:21 | 54.62417 | -5.86521 | 25 ft | 9 kts | 216° |
| 2026-05-07 13:21 | 54.62194 | -5.86792 | 24 ft | 81 kts | 214° |
| 2026-05-07 13:21 | 54.61522 | -5.87582 | 29 ft | 151 kts | 214° |
| 2026-05-07 13:21 | 54.60619 | -5.88701 | 698 ft | 163 kts | 214° |
| 2026-05-07 13:22 | 54.59693 | -5.89870 | 1554 ft | 166 kts | 214° |
| 2026-05-07 13:22 | 54.58692 | -5.91072 | 1936 ft | 185 kts | 213° |
| 2026-05-07 13:22 | 54.57557 | -5.92387 | 2316 ft | 207 kts | 213° |
| 2026-05-07 13:22 | 54.56298 | -5.93815 | 2798 ft | 229 kts | 212° |
| 2026-05-07 13:23 | 54.54868 | -5.94999 | 3779 ft | 230 kts | 193° |
| 2026-05-07 13:23 | 54.53254 | -5.94666 | 4586 ft | 246 kts | 154° |
| 2026-05-07 13:23 | 54.52109 | -5.92438 | 5453 ft | 264 kts | 114° |
| 2026-05-07 13:23 | 54.52015 | -5.89209 | 6191 ft | 284 kts | 77° |
| 2026-05-07 13:24 | 54.52826 | -5.86101 | 7110 ft | 288 kts | 60° |
| 2026-05-07 13:24 | 54.53877 | -5.83129 | 7930 ft | 294 kts | 59° |
| 2026-05-07 13:24 | 54.54957 | -5.80097 | 8792 ft | 299 kts | 59° |
| 2026-05-07 13:24 | 54.56109 | -5.77091 | 9675 ft | 303 kts | 53° |
| 2026-05-07 13:25 | 54.57473 | -5.74246 | 10316 ft | 317 kts | 48° |
| 2026-05-07 13:25 | 54.59025 | -5.71359 | 10598 ft | 340 kts | 46° |
| 2026-05-07 13:25 | 54.60679 | -5.68409 | 11163 ft | 351 kts | 46° |
| 2026-05-07 13:25 | 54.62382 | -5.65365 | 11896 ft | 356 kts | 46° |
| 2026-05-07 13:26 | 54.64108 | -5.62221 | 12614 ft | 363 kts | 47° |
| 2026-05-07 13:26 | 54.65842 | -5.59000 | 13373 ft | 368 kts | 48° |
| 2026-05-07 13:26 | 54.67580 | -5.55719 | 14072 ft | 372 kts | 48° |
| 2026-05-07 13:26 | 54.69332 | -5.52385 | 14745 ft | 376 kts | 49° |
| 2026-05-07 13:27 | 54.71064 | -5.48978 | 15432 ft | 379 kts | 51° |
| 2026-05-07 13:27 | 54.72730 | -5.45421 | 16116 ft | 382 kts | 53° |
| 2026-05-07 13:27 | 54.74356 | -5.41756 | 16713 ft | 385 kts | 54° |
| 2026-05-07 13:27 | 54.75965 | -5.38053 | 16917 ft | 385 kts | 54° |
| 2026-05-07 13:28 | 54.77564 | -5.34366 | 16962 ft | 381 kts | 54° |
| 2026-05-07 13:28 | 54.79156 | -5.30715 | 16960 ft | 379 kts | 54° |
| 2026-05-07 13:28 | 54.80754 | -5.27085 | 16961 ft | 379 kts | 53° |
| 2026-05-07 13:28 | 54.82356 | -5.23466 | 16963 ft | 378 kts | 53° |
| 2026-05-07 13:29 | 54.83964 | -5.19843 | 16968 ft | 378 kts | 53° |
| 2026-05-07 13:29 | 54.85576 | -5.16222 | 16961 ft | 378 kts | 53° |
| 2026-05-07 13:29 | 54.87182 | -5.12609 | 16961 ft | 379 kts | 53° |
| 2026-05-07 13:29 | 54.88792 | -5.08979 | 16962 ft | 378 kts | 53° |
| 2026-05-07 13:30 | 54.90397 | -5.05353 | 16973 ft | 379 kts | 53° |
| 2026-05-07 13:30 | 54.91999 | -5.01718 | 16967 ft | 379 kts | 53° |
| 2026-05-07 13:30 | 54.93583 | -4.98124 | 16971 ft | 380 kts | 53° |
| 2026-05-07 13:30 | 54.95193 | -4.94473 | 16969 ft | 380 kts | 53° |
| 2026-05-07 13:31 | 54.96801 | -4.90818 | 16948 ft | 380 kts | 53° |
| 2026-05-07 13:31 | 54.98407 | -4.87159 | 16955 ft | 380 kts | 54° |
| 2026-05-07 13:31 | 55.00010 | -4.83499 | 16959 ft | 380 kts | 53° |
| 2026-05-07 13:31 | 55.01614 | -4.79825 | 16969 ft | 380 kts | 54° |
| 2026-05-07 13:32 | 55.03213 | -4.76158 | 16973 ft | 380 kts | 54° |
| 2026-05-07 13:32 | 55.04813 | -4.72486 | 16976 ft | 380 kts | 54° |
| 2026-05-07 13:32 | 55.06415 | -4.68806 | 16979 ft | 381 kts | 54° |
| 2026-05-07 13:32 | 55.08014 | -4.65129 | 16975 ft | 381 kts | 54° |
| 2026-05-07 13:33 | 55.09616 | -4.61442 | 16975 ft | 381 kts | 54° |
| 2026-05-07 13:33 | 55.11211 | -4.57762 | 16982 ft | 381 kts | 54° |
| 2026-05-07 13:33 | 55.12809 | -4.54063 | 16984 ft | 381 kts | 54° |
| 2026-05-07 13:33 | 55.14404 | -4.50368 | 16984 ft | 381 kts | 54° |
| 2026-05-07 13:34 | 55.15998 | -4.46673 | 16985 ft | 380 kts | 54° |
| 2026-05-07 13:34 | 55.19161 | -4.39323 | 16983 ft | 380 kts | 54° |
| 2026-05-07 13:34 | 55.20752 | -4.35618 | 16979 ft | 381 kts | 54° |
| 2026-05-07 13:35 | 55.22339 | -4.31911 | 16978 ft | 381 kts | 54° |
| 2026-05-07 13:35 | 55.23926 | -4.28197 | 16978 ft | 381 kts | 54° |
| 2026-05-07 13:35 | 55.25515 | -4.24475 | 16979 ft | 381 kts | 54° |
| 2026-05-07 13:35 | 55.27104 | -4.20752 | 16979 ft | 381 kts | 54° |
| 2026-05-07 13:36 | 55.28693 | -4.17028 | 16985 ft | 381 kts | 54° |
| 2026-05-07 13:36 | 55.30283 | -4.13294 | 16980 ft | 381 kts | 54° |
| 2026-05-07 13:36 | 55.31333 | -4.10827 | 16979 ft | 381 kts | 54° |
| 2026-05-07 13:36 | 55.32922 | -4.07085 | 16981 ft | 381 kts | 54° |
| 2026-05-07 13:37 | 55.34503 | -4.03352 | 16976 ft | 381 kts | 54° |
| 2026-05-07 13:37 | 55.36083 | -3.99616 | 16977 ft | 380 kts | 54° |
| 2026-05-07 13:37 | 55.37641 | -3.95934 | 16771 ft | 371 kts | 54° |
| 2026-05-07 13:37 | 55.39166 | -3.92331 | 16532 ft | 363 kts | 54° |
| 2026-05-07 13:38 | 55.40661 | -3.88785 | 16296 ft | 360 kts | 54° |
| 2026-05-07 13:38 | 55.42145 | -3.85256 | 15932 ft | 357 kts | 54° |
| 2026-05-07 13:38 | 55.43615 | -3.81753 | 15609 ft | 355 kts | 55° |
| 2026-05-07 13:38 | 55.45079 | -3.78258 | 15269 ft | 353 kts | 54° |
| 2026-05-07 13:39 | 55.46535 | -3.74778 | 14960 ft | 352 kts | 55° |
| 2026-05-07 13:39 | 55.47984 | -3.71313 | 14654 ft | 351 kts | 54° |
| 2026-05-07 13:39 | 55.49428 | -3.67856 | 14335 ft | 349 kts | 54° |
| 2026-05-07 13:39 | 55.50845 | -3.64460 | 14028 ft | 348 kts | 54° |
| 2026-05-07 13:40 | 55.52267 | -3.61045 | 13704 ft | 347 kts | 54° |
| 2026-05-07 13:40 | 55.53702 | -3.57597 | 13266 ft | 345 kts | 54° |
| 2026-05-07 13:40 | 55.55122 | -3.54181 | 12843 ft | 344 kts | 54° |
| 2026-05-07 13:40 | 55.56532 | -3.50781 | 12416 ft | 343 kts | 55° |
| 2026-05-07 13:41 | 55.57935 | -3.47388 | 11997 ft | 340 kts | 54° |
| 2026-05-07 13:41 | 55.59327 | -3.44021 | 11586 ft | 338 kts | 54° |
| 2026-05-07 13:41 | 55.60710 | -3.40675 | 11177 ft | 336 kts | 54° |
| 2026-05-07 13:41 | 55.62084 | -3.37344 | 10779 ft | 334 kts | 54° |
| 2026-05-07 13:42 | 55.63448 | -3.34033 | 10367 ft | 332 kts | 54° |
| 2026-05-07 13:42 | 55.64806 | -3.30733 | 9970 ft | 330 kts | 54° |
| 2026-05-07 13:42 | 55.66152 | -3.27460 | 9544 ft | 328 kts | 54° |
| 2026-05-07 13:42 | 55.67498 | -3.24205 | 9104 ft | 326 kts | 52° |
| 2026-05-07 13:43 | 55.69168 | -3.21565 | 8693 ft | 322 kts | 29° |
| 2026-05-07 13:43 | 55.71133 | -3.19733 | 8351 ft | 317 kts | 25° |
| 2026-05-07 13:43 | 55.73067 | -3.18039 | 8017 ft | 312 kts | 25° |
| 2026-05-07 13:43 | 55.75006 | -3.16363 | 7686 ft | 308 kts | 25° |
| 2026-05-07 13:44 | 55.76919 | -3.14718 | 7354 ft | 303 kts | 25° |
| 2026-05-07 13:44 | 55.78799 | -3.13104 | 7043 ft | 297 kts | 25° |
| 2026-05-07 13:44 | 55.80629 | -3.11539 | 6893 ft | 287 kts | 25° |
| 2026-05-07 13:44 | 55.82414 | -3.10013 | 6748 ft | 283 kts | 25° |
| 2026-05-07 13:45 | 55.84185 | -3.08506 | 6599 ft | 281 kts | 25° |
| 2026-05-07 13:45 | 55.85954 | -3.07002 | 6449 ft | 282 kts | 25° |
| 2026-05-07 13:45 | 55.87721 | -3.05492 | 6288 ft | 281 kts | 25° |
| 2026-05-07 13:45 | 55.89479 | -3.03998 | 6129 ft | 280 kts | 25° |
| 2026-05-07 13:46 | 55.91235 | -3.02498 | 5971 ft | 278 kts | 25° |
| 2026-05-07 13:46 | 55.92943 | -3.01037 | 5812 ft | 267 kts | 25° |
| 2026-05-07 13:46 | 55.94590 | -2.99632 | 5655 ft | 259 kts | 22° |
| 2026-05-07 13:46 | 55.96313 | -2.99034 | 5488 ft | 251 kts | 351° |
| 2026-05-07 13:47 | 55.98009 | -2.99636 | 5346 ft | 248 kts | 341° |
| 2026-05-07 13:47 | 55.99665 | -3.00454 | 5183 ft | 247 kts | 340° |
| 2026-05-07 13:47 | 56.01307 | -3.01293 | 5024 ft | 242 kts | 340° |
| 2026-05-07 13:47 | 56.02917 | -3.02121 | 4743 ft | 239 kts | 340° |
| 2026-05-07 13:48 | 56.04492 | -3.02930 | 4451 ft | 237 kts | 340° |
| 2026-05-07 13:48 | 56.06065 | -3.03739 | 4221 ft | 232 kts | 337° |
| 2026-05-07 13:48 | 56.07380 | -3.05192 | 4023 ft | 215 kts | 303° |
| 2026-05-07 13:48 | 56.07929 | -3.07464 | 3879 ft | 192 kts | 268° |
| 2026-05-07 13:49 | 56.07587 | -3.09637 | 3650 ft | 181 kts | 231° |
| 2026-05-07 13:49 | 56.06617 | -3.11047 | 3454 ft | 181 kts | 212° |
| 2026-05-07 13:49 | 56.05531 | -3.12182 | 3239 ft | 180 kts | 210° |
| 2026-05-07 13:49 | 56.04447 | -3.13273 | 3028 ft | 174 kts | 210° |
| 2026-05-07 13:50 | 56.03422 | -3.14298 | 2823 ft | 168 kts | 210° |
| 2026-05-07 13:50 | 56.02408 | -3.15315 | 2612 ft | 167 kts | 209° |
| 2026-05-07 13:50 | 56.01524 | -3.16612 | 2487 ft | 167 kts | 239° |
| 2026-05-07 13:50 | 56.01219 | -3.18644 | 2336 ft | 170 kts | 251° |
| 2026-05-07 13:51 | 56.00668 | -3.20472 | 2128 ft | 168 kts | 233° |
| 2026-05-07 13:51 | 56.00056 | -3.22253 | 1907 ft | 168 kts | 236° |
| 2026-05-07 13:51 | 55.99458 | -3.24033 | 1683 ft | 166 kts | 236° |
| 2026-05-07 13:51 | 55.98878 | -3.25760 | 1454 ft | 155 kts | 236° |
| 2026-05-07 13:52 | 55.98348 | -3.27335 | 1259 ft | 140 kts | 236° |
| 2026-05-07 13:52 | 55.97850 | -3.28780 | 1132 ft | 135 kts | 236° |
| 2026-05-07 13:52 | 55.97392 | -3.30215 | 865 ft | 133 kts | 236° |
| 2026-05-07 13:52 | 55.96926 | -3.31620 | 645 ft | 133 kts | 235° |
| 2026-05-07 13:53 | 55.96428 | -3.33034 | 474 ft | 134 kts | 236° |
| 2026-05-07 13:53 | 55.95957 | -3.34443 | 305 ft | 129 kts | 235° |
| 2026-05-07 13:53 | 55.95494 | -3.35796 | 142 ft | 127 kts | 236° |
| 2026-05-07 13:53 | 55.95079 | -3.36983 | 115 ft | 93 kts | 238° |
| 2026-05-07 13:54 | 55.94839 | -3.37716 | 114 ft | 44 kts | 239° |
| 2026-05-07 13:54 | 55.94730 | -3.38027 | 114 ft | 14 kts | 233° |
| 2026-05-07 13:54 | 55.94672 | -3.38022 | 114 ft | 7 kts | 148° |
| 2026-05-07 13:54 | 55.94623 | -3.37978 | 116 ft | 10 kts | 153° |
| 2026-05-07 13:55 | 55.94596 | -3.37870 | 113 ft | 10 kts | 67° |
| 2026-05-07 13:55 | 55.94632 | -3.37761 | 114 ft | 11 kts | 59° |
| 2026-05-07 13:55 | 55.94672 | -3.37636 | 114 ft | 13 kts | 59° |
| 2026-05-07 13:55 | 55.94724 | -3.37491 | 115 ft | 15 kts | 57° |
| 2026-05-07 13:56 | 55.94781 | -3.37324 | 115 ft | 17 kts | 59° |
| 2026-05-07 13:56 | 55.94840 | -3.37130 | 114 ft | 19 kts | 62° |
| 2026-05-07 13:56 | 55.94909 | -3.36926 | 115 ft | 20 kts | 58° |
| 2026-05-07 13:56 | 55.94990 | -3.36702 | 114 ft | 23 kts | 57° |
| 2026-05-07 13:57 | 55.95082 | -3.36439 | 114 ft | 27 kts | 59° |
| 2026-05-07 13:57 | 55.95137 | -3.36231 | 116 ft | 16 kts | 99° |
| 2026-05-07 13:57 | 55.95100 | -3.36023 | 116 ft | 17 kts | 111° |
| 2026-05-07 13:57 | 55.95045 | -3.35845 | 115 ft | 12 kts | 140° |
| 2026-05-07 13:58 | 55.94961 | -3.35872 | 116 ft | 11 kts | 213° |
| 2026-05-07 13:58 | 55.94941 | -3.35968 | 114 ft | 4 kts | 255° |
| 2026-05-07 13:58 | 55.94937 | -3.35997 | 115 ft | 0 kts | 254° |